Terminal Aerodrome Forecast
Issued by NWS

Home | Current Version | Previous Version | Text Only | Print | Product List | Glossary On
Versions: 1 2 3 4 5 6 7 8 9 10 11 12 13 14 15
000
FTUS43 KPAH 260520
TAFOWB
TAF
KOWB 260520Z 2606/2706 23004KT P6SM SCT250
     FM261000 00000KT 4SM BR FEW015 SCT250
     FM261300 12004KT P6SM SCT035 BKN250
     FM270000 VRB03KT P6SM FEW050 BKN200=

USA.gov is the U.S. government's official web portal to all federal, state and local government web resources and services.